createdAt,value
2022-10-02T00:02:16.530Z,11.41
2022-10-02T00:04:48.915Z,11.43
2022-10-02T00:07:19.130Z,11.45
2022-10-02T00:09:51.190Z,11.44
2022-10-02T00:12:22.551Z,11.46
2022-10-02T00:14:52.857Z,11.48
2022-10-02T00:17:23.779Z,11.49
2022-10-02T00:19:53.455Z,11.51
2022-10-02T00:22:47.319Z,11.51
2022-10-02T00:25:23.651Z,11.53
2022-10-02T00:28:05.735Z,11.54
2022-10-02T00:30:41.279Z,11.54
2022-10-02T00:33:16.284Z,11.54
2022-10-02T00:35:52.320Z,11.54
2022-10-02T00:38:38.220Z,11.53
2022-10-02T00:41:30.856Z,11.53
2022-10-02T00:44:14.825Z,11.51
2022-10-02T00:46:48.835Z,11.51
2022-10-02T00:49:30.140Z,11.50
2022-10-02T00:52:08.499Z,11.48
2022-10-02T00:54:56.862Z,11.45
2022-10-02T00:57:41.727Z,11.43
2022-10-02T01:00:11.253Z,11.41
2022-10-02T01:02:53.982Z,11.39
2022-10-02T01:05:20.880Z,11.37
2022-10-02T01:07:50.913Z,11.37
2022-10-02T01:10:17.729Z,11.35
2022-10-02T01:12:45.663Z,11.32
2022-10-02T01:15:13.248Z,11.33
2022-10-02T01:17:40.101Z,11.31
2022-10-02T01:20:12.457Z,11.29
2022-10-02T01:22:44.302Z,11.28
2022-10-02T01:25:12.445Z,11.25
2022-10-02T01:27:39.526Z,11.24
2022-10-02T01:30:08.603Z,11.23
2022-10-02T01:32:39.736Z,11.22
2022-10-02T01:35:07.346Z,11.21
2022-10-02T01:37:39.418Z,11.19
2022-10-02T01:40:09.401Z,11.16
2022-10-02T01:42:38.450Z,11.14
2022-10-02T01:45:07.269Z,11.11
2022-10-02T01:47:40.542Z,11.09
2022-10-02T01:50:16.393Z,11.07
2022-10-02T01:52:49.656Z,11.05
2022-10-02T01:55:33.192Z,11.05
2022-10-02T01:58:19.177Z,11.03
2022-10-02T02:00:57.180Z,11.01
2022-10-02T02:03:32.241Z,11.00
2022-10-02T02:06:05.625Z,11.00
2022-10-02T02:08:36.047Z,10.98
2022-10-02T02:11:11.064Z,10.97
2022-10-02T02:13:45.136Z,10.97
2022-10-02T02:16:19.641Z,10.95
2022-10-02T02:18:51.320Z,10.94
2022-10-02T02:21:22.985Z,10.93
2022-10-02T02:23:50.704Z,10.91
2022-10-02T02:26:19.616Z,10.89
2022-10-02T02:28:50.920Z,10.88
2022-10-02T02:31:22.305Z,10.88
2022-10-02T02:33:52.830Z,10.87
2022-10-02T02:36:23.860Z,10.88
2022-10-02T02:38:54.678Z,10.86
2022-10-02T02:41:26.685Z,10.87
2022-10-02T02:43:59.447Z,10.85
2022-10-02T02:46:33.893Z,10.84
2022-10-02T02:49:08.291Z,10.82
2022-10-02T02:51:38.981Z,10.81
2022-10-02T02:54:12.292Z,10.78
2022-10-02T02:56:41.870Z,10.77
2022-10-02T02:59:11.352Z,10.76
2022-10-02T03:01:38.162Z,10.76
2022-10-02T03:04:04.703Z,10.76
2022-10-02T03:06:35.359Z,10.74
2022-10-02T03:09:02.430Z,10.74
2022-10-02T03:11:41.465Z,10.74
2022-10-02T03:14:28.315Z,10.73
2022-10-02T03:17:06.461Z,10.72
2022-10-02T03:19:43.497Z,10.71
2022-10-02T03:22:15.378Z,10.70
2022-10-02T03:24:49.526Z,10.70
2022-10-02T03:27:23.302Z,10.68
2022-10-02T03:29:56.833Z,10.68
2022-10-02T03:32:24.028Z,10.67
2022-10-02T03:34:50.541Z,10.69
2022-10-02T03:37:17.961Z,10.69
2022-10-02T03:39:44.929Z,10.70
2022-10-02T03:42:13.322Z,10.69
2022-10-02T03:44:39.900Z,10.69
2022-10-02T03:47:07.680Z,10.69
2022-10-02T03:49:34.179Z,10.70
2022-10-02T03:52:01.078Z,10.71
2022-10-02T03:54:33.581Z,10.74
2022-10-02T03:57:04.804Z,10.75
2022-10-02T03:59:44.514Z,10.76
2022-10-02T04:02:23.156Z,10.76
2022-10-02T04:04:54.721Z,10.76
2022-10-02T04:07:27.976Z,10.76
2022-10-02T04:10:16.266Z,10.74
2022-10-02T04:12:47.404Z,10.75
2022-10-02T04:15:21.076Z,10.76
2022-10-02T04:17:58.808Z,10.77
2022-10-02T04:20:31.031Z,10.78
2022-10-02T04:23:03.878Z,10.81
2022-10-02T04:25:36.842Z,10.84
2022-10-02T04:28:07.825Z,10.85
2022-10-02T04:30:34.420Z,10.89
2022-10-02T04:33:11.392Z,10.92
2022-10-02T04:35:44.757Z,10.95
2022-10-02T04:38:35.201Z,10.98
2022-10-02T04:41:21.138Z,11.02
2022-10-02T04:44:01.973Z,11.03
2022-10-02T04:46:54.365Z,11.07
2022-10-02T04:49:37.729Z,11.10
2022-10-02T04:52:33.888Z,11.14
2022-10-02T04:55:24.409Z,11.17
2022-10-02T04:58:36.920Z,11.18
2022-10-02T05:01:12.939Z,11.20
2022-10-02T05:04:03.174Z,11.21
2022-10-02T05:06:45.152Z,11.21
2022-10-02T05:09:20.806Z,11.19
2022-10-02T05:12:01.345Z,11.19
2022-10-02T05:14:43.351Z,11.19
2022-10-02T05:17:27.680Z,11.18
2022-10-02T05:20:06.386Z,11.17
2022-10-02T05:23:00.889Z,11.18
2022-10-02T05:25:43.958Z,11.18
2022-10-02T05:28:26.363Z,11.17
2022-10-02T05:31:01.532Z,11.17
2022-10-02T05:33:50.893Z,11.17
2022-10-02T05:36:39.710Z,11.19
2022-10-02T05:39:13.622Z,11.23
2022-10-02T05:41:46.692Z,11.29
2022-10-02T05:44:18.096Z,11.37
2022-10-02T05:46:50.331Z,11.44
2022-10-02T05:49:20.428Z,11.54
2022-10-02T05:51:53.645Z,11.60
2022-10-02T05:54:30.074Z,11.64
2022-10-02T05:57:01.592Z,11.67
2022-10-02T05:59:37.913Z,11.69
2022-10-02T06:02:13.960Z,11.70
2022-10-02T06:04:47.666Z,11.72
2022-10-02T06:07:17.525Z,11.72
2022-10-02T06:09:49.534Z,11.72
2022-10-02T06:12:22.528Z,11.72
2022-10-02T06:14:56.260Z,11.74
2022-10-02T06:17:25.785Z,11.77
2022-10-02T06:20:01.004Z,11.81
2022-10-02T06:22:34.785Z,11.84
2022-10-02T06:25:10.429Z,11.86
2022-10-02T06:27:43.937Z,11.88
2022-10-02T06:30:12.409Z,11.90
2022-10-02T06:32:45.677Z,11.93
2022-10-02T06:35:13.900Z,11.94
2022-10-02T06:37:53.433Z,11.96
2022-10-02T06:40:45.977Z,11.98
2022-10-02T06:43:24.253Z,12.02
2022-10-02T06:45:57.282Z,12.05
2022-10-02T06:48:31.222Z,12.08
2022-10-02T06:51:05.912Z,12.10
2022-10-02T06:53:52.759Z,12.10
2022-10-02T06:56:36.435Z,12.12
2022-10-02T06:59:19.000Z,12.16
2022-10-02T07:01:57.639Z,12.18
2022-10-02T07:04:40.266Z,12.20
2022-10-02T07:07:21.057Z,12.19
2022-10-02T07:10:11.390Z,12.23
2022-10-02T07:12:54.745Z,12.28
2022-10-02T07:15:42.824Z,12.35
2022-10-02T07:18:19.721Z,12.41
2022-10-02T07:20:54.221Z,12.48
2022-10-02T07:23:47.406Z,12.57
2022-10-02T07:26:35.838Z,12.66
2022-10-02T07:29:20.640Z,12.73
2022-10-02T07:32:01.856Z,12.84
2022-10-02T07:34:41.458Z,12.91
2022-10-02T07:37:16.685Z,12.95
2022-10-02T07:40:00.352Z,13.01
2022-10-02T07:42:43.785Z,13.10
2022-10-02T07:45:39.220Z,13.19
2022-10-02T07:48:30.884Z,13.26
2022-10-02T07:51:05.447Z,13.34
2022-10-02T07:53:39.958Z,13.40
2022-10-02T07:56:09.007Z,13.45
2022-10-02T07:58:43.701Z,13.46
2022-10-02T08:01:17.918Z,13.49
2022-10-02T08:03:48.712Z,13.51
2022-10-02T08:06:17.213Z,13.55
2022-10-02T08:08:49.258Z,13.62
2022-10-02T08:11:19.897Z,13.69
2022-10-02T08:13:51.064Z,13.78
2022-10-02T08:16:20.434Z,13.91
2022-10-02T08:18:50.649Z,14.07
2022-10-02T08:21:20.213Z,14.23
2022-10-02T08:23:52.786Z,14.36
2022-10-02T08:26:30.674Z,14.46
2022-10-02T08:29:03.844Z,14.53
2022-10-02T08:31:32.029Z,14.58
2022-10-02T08:34:01.818Z,14.64
2022-10-02T08:36:46.189Z,14.70
2022-10-02T08:39:39.112Z,14.78
2022-10-02T08:42:32.939Z,14.88
2022-10-02T08:45:46.106Z,14.98
2022-10-02T08:48:52.633Z,15.07
2022-10-02T08:51:55.793Z,15.19
2022-10-02T08:55:10.066Z,15.27
2022-10-02T08:57:59.082Z,15.39
2022-10-02T09:00:36.516Z,15.49
2022-10-02T09:03:45.566Z,15.56
2022-10-02T09:06:47.680Z,15.64
2022-10-02T09:10:04.712Z,15.73
2022-10-02T09:13:06.782Z,15.82
2022-10-02T09:15:45.226Z,15.90
2022-10-02T09:18:18.506Z,16.01
2022-10-02T09:21:11.545Z,16.13
2022-10-02T09:24:13.943Z,16.24
2022-10-02T09:27:24.885Z,16.33
2022-10-02T09:30:19.412Z,16.43
2022-10-02T09:33:28.695Z,16.55
2022-10-02T09:36:21.925Z,16.67
2022-10-02T09:39:30.203Z,16.75
2022-10-02T09:42:42.963Z,16.74
2022-10-02T09:45:43.105Z,16.70
2022-10-02T09:48:34.675Z,16.67
2022-10-02T09:51:36.591Z,16.64
2022-10-02T09:54:35.490Z,16.62
2022-10-02T09:57:38.997Z,16.57
2022-10-02T10:00:19.557Z,16.46
2022-10-02T10:03:24.334Z,16.34
2022-10-02T10:06:12.872Z,16.19
2022-10-02T10:09:08.842Z,16.08
2022-10-02T10:11:57.864Z,16.04
2022-10-02T10:14:53.519Z,16.03
2022-10-02T10:17:57.222Z,16.11
2022-10-02T10:20:54.391Z,16.26
2022-10-02T10:23:44.548Z,16.38
2022-10-02T10:26:39.742Z,16.43
2022-10-02T10:29:29.959Z,16.40
2022-10-02T10:32:50.441Z,16.28
2022-10-02T10:35:45.926Z,16.19
2022-10-02T10:38:38.015Z,16.13
2022-10-02T10:41:35.982Z,16.11
2022-10-02T10:44:38.806Z,16.10
2022-10-02T10:47:39.099Z,16.17
2022-10-02T10:50:31.941Z,16.21
2022-10-02T10:53:13.331Z,16.26
2022-10-02T10:56:18.400Z,16.32
2022-10-02T10:59:04.438Z,16.35
2022-10-02T11:01:39.863Z,16.33
2022-10-02T11:04:30.186Z,16.32
2022-10-02T11:07:24.778Z,16.22
2022-10-02T11:10:18.954Z,16.06
2022-10-02T11:13:02.929Z,15.94
2022-10-02T11:15:47.783Z,15.86
2022-10-02T11:18:56.177Z,15.77
2022-10-02T11:21:38.729Z,15.71
2022-10-02T11:24:45.850Z,15.76
2022-10-02T11:27:35.308Z,15.91
2022-10-02T11:30:19.771Z,16.03
2022-10-02T11:33:29.713Z,16.17
2022-10-02T11:36:14.675Z,16.31
2022-10-02T11:39:13.804Z,16.50
2022-10-02T11:41:59.289Z,16.73
2022-10-02T11:44:44.424Z,16.89
2022-10-02T11:47:46.863Z,17.03
2022-10-02T11:50:47.241Z,17.16
2022-10-02T11:53:36.377Z,17.26
2022-10-02T11:56:29.822Z,17.33
2022-10-02T11:59:11.479Z,17.44
2022-10-02T12:01:41.772Z,17.46
2022-10-02T12:04:29.358Z,17.37
2022-10-02T12:07:10.570Z,17.24
2022-10-02T12:09:57.753Z,17.03
2022-10-02T12:12:44.152Z,16.87
2022-10-02T12:15:21.087Z,16.78
2022-10-02T12:18:01.023Z,16.79
2022-10-02T12:20:42.951Z,16.87
2022-10-02T12:23:24.435Z,16.97
2022-10-02T12:25:57.982Z,17.07
2022-10-02T12:28:38.380Z,17.13
2022-10-02T12:31:14.568Z,17.19
2022-10-02T12:33:56.568Z,17.28
2022-10-02T12:36:49.718Z,17.34
2022-10-02T12:39:31.851Z,17.28
2022-10-02T12:42:09.064Z,17.19
2022-10-02T12:45:00.079Z,17.15
2022-10-02T12:47:46.091Z,17.25
2022-10-02T12:50:23.091Z,17.36
2022-10-02T12:53:14.824Z,17.52
2022-10-02T12:56:13.823Z,17.69
2022-10-02T12:58:52.151Z,17.84
2022-10-02T13:02:09.362Z,17.93
2022-10-02T13:04:59.576Z,18.02
2022-10-02T13:07:54.909Z,18.19
2022-10-02T13:10:24.815Z,18.29
2022-10-02T13:13:05.081Z,18.34
2022-10-02T13:15:41.404Z,18.30
2022-10-02T13:18:46.747Z,18.20
2022-10-02T13:21:23.609Z,18.08
2022-10-02T13:24:03.034Z,18.00
2022-10-02T13:26:35.497Z,17.92
2022-10-02T13:29:34.025Z,17.87
2022-10-02T13:32:23.562Z,17.72
2022-10-02T13:35:06.645Z,17.59
2022-10-02T13:37:46.446Z,17.53
2022-10-02T13:40:28.581Z,17.43
2022-10-02T13:43:20.336Z,17.40
2022-10-02T13:45:49.635Z,17.40
2022-10-02T13:48:27.849Z,17.45
2022-10-02T13:51:03.931Z,17.48
2022-10-02T13:54:00.291Z,17.56
2022-10-02T13:56:40.455Z,17.58
2022-10-02T13:59:18.519Z,17.55
2022-10-02T14:02:02.929Z,17.55
2022-10-02T14:04:40.901Z,17.52
2022-10-02T14:07:20.359Z,17.50
2022-10-02T14:10:02.662Z,17.51
2022-10-02T14:12:40.682Z,17.51
2022-10-02T14:15:24.623Z,17.48
2022-10-02T14:18:15.535Z,17.42
2022-10-02T14:20:52.890Z,17.36
2022-10-02T14:23:48.930Z,17.37
2022-10-02T14:26:26.639Z,17.35
2022-10-02T14:29:08.989Z,17.30
2022-10-02T14:32:05.227Z,17.27
2022-10-02T14:35:03.489Z,17.25
2022-10-02T14:37:57.590Z,17.23
2022-10-02T14:40:26.886Z,17.18
2022-10-02T14:43:13.185Z,17.18
2022-10-02T14:46:02.299Z,17.15
2022-10-02T14:48:44.100Z,17.16
2022-10-02T14:51:25.650Z,17.12
2022-10-02T14:54:04.935Z,17.11
2022-10-02T14:57:05.275Z,17.11
2022-10-02T15:00:02.283Z,17.12
2022-10-02T15:03:00.991Z,17.14
2022-10-02T15:05:45.164Z,17.11
2022-10-02T15:08:15.944Z,17.08
2022-10-02T15:10:45.994Z,17.06
2022-10-02T15:13:24.228Z,17.02
2022-10-02T15:15:55.921Z,16.97
2022-10-02T15:18:32.431Z,16.92
2022-10-02T15:21:05.409Z,16.86
2022-10-02T15:23:43.867Z,16.80
2022-10-02T15:26:26.273Z,16.74
2022-10-02T15:29:02.119Z,16.65
2022-10-02T15:31:39.269Z,16.58
2022-10-02T15:34:19.101Z,16.55
2022-10-02T15:37:02.403Z,16.51
2022-10-02T15:39:47.873Z,16.46
2022-10-02T15:42:19.369Z,16.41
2022-10-02T15:45:10.255Z,16.37
2022-10-02T15:47:58.105Z,16.36
2022-10-02T15:50:34.002Z,16.32
2022-10-02T15:53:22.181Z,16.31
2022-10-02T15:55:53.150Z,16.26
2022-10-02T15:58:31.218Z,16.22
2022-10-02T16:01:18.628Z,16.15
2022-10-02T16:03:50.841Z,16.07
2022-10-02T16:06:29.988Z,16.01
2022-10-02T16:09:17.624Z,15.95
2022-10-02T16:12:02.821Z,15.89
2022-10-02T16:14:39.481Z,15.83
2022-10-02T16:17:18.753Z,15.78
2022-10-02T16:20:02.611Z,15.68
2022-10-02T16:22:43.669Z,15.62
2022-10-02T16:25:27.751Z,15.58
2022-10-02T16:28:11.431Z,15.53
2022-10-02T16:30:57.653Z,15.46
2022-10-02T16:33:32.499Z,15.40
2022-10-02T16:36:24.524Z,15.33
2022-10-02T16:38:56.203Z,15.27
2022-10-02T16:41:34.973Z,15.23
2022-10-02T16:44:15.930Z,15.17
2022-10-02T16:46:46.277Z,15.11
2022-10-02T16:49:24.528Z,15.05
2022-10-02T16:52:00.219Z,14.99
2022-10-02T16:54:32.595Z,14.93
2022-10-02T16:57:04.086Z,14.89
2022-10-02T16:59:39.757Z,14.83
2022-10-02T17:02:18.648Z,14.76
2022-10-02T17:04:57.440Z,14.71
2022-10-02T17:07:34.977Z,14.64
2022-10-02T17:10:18.215Z,14.59
2022-10-02T17:12:50.414Z,14.53
2022-10-02T17:15:22.909Z,14.47
2022-10-02T17:18:17.218Z,14.41
2022-10-02T17:20:48.112Z,14.34
2022-10-02T17:23:24.830Z,14.31
2022-10-02T17:25:59.961Z,14.25
2022-10-02T17:28:32.137Z,14.20
2022-10-02T17:31:23.071Z,14.14
2022-10-02T17:33:55.433Z,14.09
2022-10-02T17:36:32.019Z,14.02
2022-10-02T17:39:15.127Z,13.98
2022-10-02T17:41:53.157Z,13.92
2022-10-02T17:44:27.889Z,13.88
2022-10-02T17:47:30.844Z,13.83
2022-10-02T17:50:20.216Z,13.80
2022-10-02T17:52:56.998Z,13.76
2022-10-02T17:55:56.116Z,13.73
2022-10-02T17:58:30.574Z,13.70
2022-10-02T18:01:05.664Z,13.68
2022-10-02T18:03:46.866Z,13.65
2022-10-02T18:06:20.869Z,13.62
2022-10-02T18:09:15.395Z,13.59
2022-10-02T18:12:09.774Z,13.55
2022-10-02T18:14:57.101Z,13.51
2022-10-02T18:17:31.935Z,13.46
2022-10-02T18:20:05.317Z,13.44
2022-10-02T18:22:54.589Z,13.40
2022-10-02T18:25:49.427Z,13.37
2022-10-02T18:28:35.283Z,13.32
2022-10-02T18:31:12.335Z,13.29
2022-10-02T18:34:02.041Z,13.26
2022-10-02T18:36:45.111Z,13.22
2022-10-02T18:39:18.148Z,13.18
2022-10-02T18:41:55.674Z,13.13
2022-10-02T18:44:50.234Z,13.10
2022-10-02T18:47:30.875Z,13.05
2022-10-02T18:50:07.064Z,13.03
2022-10-02T18:52:47.436Z,13.00
2022-10-02T18:55:36.404Z,12.97
2022-10-02T18:58:10.277Z,12.94
2022-10-02T19:01:04.321Z,12.91
2022-10-02T19:03:36.384Z,12.86
2022-10-02T19:06:11.246Z,12.83
2022-10-02T19:09:01.033Z,12.81
2022-10-02T19:11:29.325Z,12.77
2022-10-02T19:13:55.845Z,12.74
2022-10-02T19:16:26.163Z,12.71
2022-10-02T19:19:06.966Z,12.68
2022-10-02T19:21:35.334Z,12.65
2022-10-02T19:24:06.376Z,12.62
2022-10-02T19:26:35.362Z,12.59
2022-10-02T19:29:07.508Z,12.57
2022-10-02T19:31:38.152Z,12.54
2022-10-02T19:34:12.758Z,12.51
2022-10-02T19:36:45.018Z,12.49
2022-10-02T19:39:19.277Z,12.47
2022-10-02T19:41:46.566Z,12.44
2022-10-02T19:44:20.173Z,12.42
2022-10-02T19:46:51.345Z,12.40
2022-10-02T19:49:22.542Z,12.40
2022-10-02T19:51:49.267Z,12.38
2022-10-02T19:54:19.609Z,12.36
2022-10-02T19:56:47.189Z,12.35
2022-10-02T19:59:18.113Z,12.33
2022-10-02T20:01:49.663Z,12.32
2022-10-02T20:04:19.406Z,12.30
2022-10-02T20:06:49.080Z,12.28
2022-10-02T20:09:20.018Z,12.27
2022-10-02T20:11:50.225Z,12.26
2022-10-02T20:14:21.491Z,12.27
2022-10-02T20:16:49.568Z,12.26
2022-10-02T20:19:19.755Z,12.24
2022-10-02T20:21:50.128Z,12.22
2022-10-02T20:24:24.431Z,12.22
2022-10-02T20:26:53.861Z,12.21
2022-10-02T20:29:25.355Z,12.20
2022-10-02T20:32:01.152Z,12.19
2022-10-02T20:34:33.823Z,12.18
2022-10-02T20:37:05.308Z,12.17
2022-10-02T20:39:36.650Z,12.16
2022-10-02T20:42:08.172Z,12.15
2022-10-02T20:44:35.807Z,12.15
2022-10-02T20:47:34.670Z,12.14
2022-10-02T20:50:21.685Z,12.11
2022-10-02T20:53:16.862Z,12.10
2022-10-02T20:55:50.713Z,12.08
2022-10-02T20:58:45.485Z,12.07
2022-10-02T21:01:17.065Z,12.05
2022-10-02T21:04:02.413Z,12.03
2022-10-02T21:07:06.823Z,12.04
2022-10-02T21:10:21.497Z,12.02
2022-10-02T21:13:29.686Z,12.00
2022-10-02T21:16:19.121Z,11.98
2022-10-02T21:19:26.312Z,11.96
2022-10-02T21:22:28.027Z,11.93
2022-10-02T21:25:35.313Z,11.92
2022-10-02T21:28:43.041Z,11.90
2022-10-02T21:31:25.291Z,11.89
2022-10-02T21:34:09.741Z,11.88
2022-10-02T21:36:46.157Z,11.86
2022-10-02T21:39:50.070Z,11.86
2022-10-02T21:42:55.751Z,11.83
2022-10-02T21:45:56.360Z,11.82
2022-10-02T21:49:04.439Z,11.81
2022-10-02T21:52:02.798Z,11.78
2022-10-02T21:55:05.161Z,11.77
2022-10-02T21:58:01.946Z,11.75
2022-10-02T22:00:28.969Z,11.74
2022-10-02T22:03:27.698Z,11.74
2022-10-02T22:06:17.424Z,11.73
2022-10-02T22:08:59.907Z,11.72
2022-10-02T22:11:38.278Z,11.70
2022-10-02T22:14:10.532Z,11.69
2022-10-02T22:16:47.573Z,11.70
2022-10-02T22:19:28.921Z,11.68
2022-10-02T22:22:10.988Z,11.67
2022-10-02T22:24:54.826Z,11.67
2022-10-02T22:27:34.181Z,11.65
2022-10-02T22:30:02.581Z,11.64
2022-10-02T22:32:57.293Z,11.64
2022-10-02T22:35:33.828Z,11.63
2022-10-02T22:38:10.944Z,11.63
2022-10-02T22:40:46.992Z,11.63
2022-10-02T22:43:24.585Z,11.62
2022-10-02T22:45:57.604Z,11.60
2022-10-02T22:48:33.414Z,11.60
2022-10-02T22:51:09.781Z,11.60
2022-10-02T22:53:41.489Z,11.59
2022-10-02T22:56:21.238Z,11.59
2022-10-02T22:58:55.497Z,11.58
2022-10-02T23:01:30.285Z,11.57
2022-10-02T23:04:00.132Z,11.56
2022-10-02T23:06:31.562Z,11.55
2022-10-02T23:09:07.573Z,11.54
2022-10-02T23:11:41.229Z,11.53
2022-10-02T23:14:19.149Z,11.54
2022-10-02T23:16:49.868Z,11.53
2022-10-02T23:19:22.441Z,11.53
2022-10-02T23:21:52.643Z,11.51
2022-10-02T23:24:28.144Z,11.49
2022-10-02T23:27:05.993Z,11.48
2022-10-02T23:29:43.088Z,11.46
2022-10-02T23:32:20.856Z,11.44
2022-10-02T23:34:56.610Z,11.43
2022-10-02T23:37:26.133Z,11.42
2022-10-02T23:40:02.712Z,11.42
2022-10-02T23:42:38.322Z,11.41
2022-10-02T23:45:15.521Z,11.40
2022-10-02T23:47:56.500Z,11.38
2022-10-02T23:50:26.737Z,11.36
2022-10-02T23:53:12.694Z,11.36
2022-10-02T23:56:03.430Z,11.35
2022-10-02T23:58:56.492Z,11.33
